Albany, Wisconsin
Current Conditions -  °F | °C
As of 2:15 AM on Thursday 18 Dec 2014 (Local Time) from KEFT Reporting Station
Clear Clear  
Wind Chill: -11°   Ceiling: Unl
Heat Index: -7°   Visibility: 10mi
Dew Point: -9°   Wind: 5mph
Humidity: 86%   Direction: 340°NNW
Pressure: 30.25"   Gusts: NA
Location:  42.71°N, 89.44°W
Report Text: KEFT 180815Z AUTO 34004KT 10SM CLR M07/M09 A3025 RMK AO2
Loading
Personal Weather Stations






























Interactive Weather Map New forecast layout! Learn more

10-Day Weather Forecast

Advertisements
Track Severe Weather on mobile